Time;durP1;ratioP1;P1;durP2;ratioP2;P2;SDS_P1;SDS_P2;PMS_P1;PMS_P2;Temp;Humidity;BMP_temperature;BMP_pressure;BME280_temperature;BME280_humidity;BME280_pressure;Samples;Min_cycle;Max_cycle;Signal;HPM_P1;HPM_P2
2021/11/21 00:00:53;;;;;;;10.57;3.83;;;12.80;95.30;;;;;;5062669;28;20080;-60
2021/11/21 00:03:19;;;;;;;3.95;3.10;;;12.70;95.10;;;;;;5070907;28;20103;-61
2021/11/21 00:05:45;;;;;;;4.63;2.20;;;12.70;95.30;;;;;;5070952;28;20906;-60
2021/11/21 00:08:13;;;;;;;5.45;2.03;;;12.70;95.40;;;;;;5060273;28;20550;-61
2021/11/21 00:10:39;;;;;;;8.02;3.85;;;12.70;95.60;;;;;;5071917;28;20506;-61
2021/11/21 00:13:07;;;;;;;5.72;3.60;;;12.60;95.60;;;;;;5069710;28;20048;-60
2021/11/21 00:15:34;;;;;;;8.07;3.53;;;12.60;95.60;;;;;;5084976;28;20036;-61
2021/11/21 00:18:01;;;;;;;8.40;3.35;;;12.60;95.80;;;;;;5072158;28;20075;-61
2021/11/21 00:20:27;;;;;;;7.47;4.15;;;12.60;95.70;;;;;;5070605;28;20110;-61
2021/11/21 00:22:53;;;;;;;6.43;2.00;;;12.70;95.40;;;;;;5066089;28;20032;-60
2021/11/21 00:25:19;;;;;;;7.45;2.78;;;12.80;95.70;;;;;;5069977;28;20046;-60
2021/11/21 00:27:44;;;;;;;4.78;2.85;;;13.10;95.80;;;;;;5070226;28;20135;-61
2021/11/21 00:30:11;;;;;;;5.82;1.90;;;13.30;95.50;;;;;;5071113;28;20051;-60
2021/11/21 00:32:36;;;;;;;4.78;2.65;;;13.50;95.20;;;;;;5070928;28;20039;-60
2021/11/21 00:35:03;;;;;;;5.30;2.83;;;13.80;95.10;;;;;;5072741;28;20053;-60
2021/11/21 00:37:29;;;;;;;4.68;2.63;;;14.00;94.60;;;;;;5069742;28;20039;-60
2021/11/21 00:39:56;;;;;;;5.82;3.22;;;14.10;94.20;;;;;;5070858;28;20412;-59
2021/11/21 00:42:23;;;;;;;5.43;2.53;;;14.10;93.90;;;;;;5069630;28;20506;-60
2021/11/21 00:44:49;;;;;;;3.60;2.28;;;14.30;93.80;;;;;;5069708;28;20599;-60
2021/11/21 00:47:15;;;;;;;4.43;2.20;;;14.50;93.70;;;;;;5069240;28;20036;-60
2021/11/21 00:49:41;;;;;;;4.82;2.47;;;14.70;93.50;;;;;;5071889;28;20044;-60
2021/11/21 00:52:08;;;;;;;4.60;2.40;;;14.80;93.10;;;;;;5069619;28;20072;-60
2021/11/21 00:57:13;;;;;;;5.22;2.15;;;15.00;92.80;;;;;;5070870;28;20040;-60
2021/11/21 00:59:38;;;;;;;4.10;2.42;;;15.00;92.70;;;;;;5070233;28;20106;-60
2021/11/21 01:02:09;;;;;;;4.40;3.15;;;15.00;92.40;;;;;;5071786;28;20100;-60
2021/11/21 01:04:36;;;;;;;5.05;2.97;;;14.90;92.10;;;;;;5070891;28;20058;-60
2021/11/21 01:07:02;;;;;;;7.18;3.20;;;14.80;92.20;;;;;;5067783;28;20040;-60
2021/11/21 01:09:28;;;;;;;5.82;3.35;;;14.70;92.40;;;;;;5068754;28;20156;-60
2021/11/21 01:11:56;;;;;;;3.67;2.53;;;14.70;92.50;;;;;;5069614;28;20069;-60
2021/11/21 01:14:25;;;;;;;4.97;3.13;;;14.70;92.40;;;;;;5071385;28;20149;-60
2021/11/21 01:16:51;;;;;;;4.53;2.75;;;14.70;92.30;;;;;;5069153;28;20032;-60
2021/11/21 01:19:18;;;;;;;5.80;2.78;;;14.60;92.30;;;;;;5071286;28;20029;-61
2021/11/21 01:21:44;;;;;;;4.55;2.63;;;14.70;92.30;;;;;;5070301;28;20040;-59
2021/11/21 01:24:09;;;;;;;4.63;2.90;;;14.70;92.30;;;;;;5068803;28;20047;-64
2021/11/21 01:26:35;;;;;;;4.45;2.83;;;14.90;92.10;;;;;;5070170;28;20403;-65
2021/11/21 01:29:02;;;;;;;3.50;2.70;;;14.70;91.90;;;;;;5069617;28;20048;-65
2021/11/21 01:31:27;;;;;;;5.53;2.53;;;14.70;92.10;;;;;;5070497;28;20037;-64
2021/11/21 01:33:53;;;;;;;4.18;2.25;;;14.60;92.10;;;;;;5071730;28;20093;-65
2021/11/21 01:36:19;;;;;;;4.20;2.30;;;14.80;92.10;;;;;;5070356;28;20048;-65
2021/11/21 01:38:45;;;;;;;3.92;2.03;;;14.90;91.80;;;;;;5084729;28;20464;-64
2021/11/21 01:41:12;;;;;;;3.65;1.95;;;15.00;91.90;;;;;;5070838;28;20040;-64
2021/11/21 01:43:38;;;;;;;3.63;2.30;;;15.20;91.80;;;;;;5068802;28;20044;-64
2021/11/21 01:46:04;;;;;;;3.58;2.30;;;15.50;91.60;;;;;;5070427;28;20036;-65
2021/11/21 01:48:30;;;;;;;4.10;2.60;;;15.70;91.30;;;;;;5071138;28;20032;-65
2021/11/21 01:51:02;;;;;;;3.78;2.17;;;15.90;91.00;;;;;;5069545;28;20036;-64
2021/11/21 01:53:27;;;;;;;4.10;2.85;;;16.00;90.70;;;;;;5069546;28;20118;-65
2021/11/21 01:55:53;;;;;;;3.03;1.95;;;16.20;90.60;;;;;;5067951;28;22276;-65
2021/11/21 01:58:19;;;;;;;4.45;3.17;;;16.30;90.30;;;;;;5067804;28;20062;-65
2021/11/21 02:00:46;;;;;;;5.82;3.08;;;16.40;90.20;;;;;;5069635;28;20577;-65
2021/11/21 02:03:12;;;;;;;6.20;3.47;;;16.40;90.10;;;;;;5070813;28;20036;-66
2021/11/21 02:05:38;;;;;;;5.63;3.42;;;16.30;90.10;;;;;;5068179;28;20051;-66
2021/11/21 02:08:05;;;;;;;5.18;2.83;;;16.40;90.00;;;;;;5067744;28;20040;-65
2021/11/21 02:10:34;;;;;;;5.07;2.95;;;16.50;89.90;;;;;;5067145;28;20076;-65
2021/11/21 02:13:00;;;;;;;5.38;3.13;;;16.60;89.60;;;;;;5068907;28;20036;-66
2021/11/21 02:15:27;;;;;;;4.20;2.95;;;16.70;89.30;;;;;;5061428;28;20076;-66
2021/11/21 02:17:53;;;;;;;5.53;3.10;;;16.80;88.90;;;;;;5084485;28;20040;-66
2021/11/21 02:20:34;;;;;;;5.18;3.03;;;16.80;88.50;;;;;;5068030;28;20102;-66
2021/11/21 02:23:05;;;;;;;4.78;2.95;;;16.90;88.60;;;;;;5068743;28;20032;-65
2021/11/21 02:25:31;;;;;;;5.70;3.20;;;16.90;88.10;;;;;;5068266;28;20035;-65
2021/11/21 02:27:57;;;;;;;4.40;2.72;;;16.90;88.10;;;;;;5069525;28;20488;-65
2021/11/21 02:30:23;;;;;;;5.38;3.17;;;16.90;87.90;;;;;;5083158;28;20048;-66
2021/11/21 02:32:51;;;;;;;6.88;3.10;;;16.90;87.70;;;;;;5068810;28;20457;-65
2021/11/21 02:35:17;;;;;;;6.95;3.40;;;16.90;87.50;;;;;;5057209;28;20051;-66
2021/11/21 02:37:43;;;;;;;4.57;2.92;;;17.00;87.50;;;;;;5068720;28;20935;-65
2021/11/21 02:40:10;;;;;;;4.88;2.83;;;17.00;87.30;;;;;;5084544;28;20155;-66
2021/11/21 02:42:37;;;;;;;4.53;2.83;;;17.00;87.30;;;;;;5068622;28;21011;-66
2021/11/21 02:45:11;;;;;;;6.68;3.42;;;17.00;87.20;;;;;;5069398;28;20041;-66
2021/11/21 02:47:37;;;;;;;5.15;2.95;;;17.10;87.20;;;;;;5067740;28;20087;-66
2021/11/21 02:50:07;;;;;;;6.35;3.00;;;17.10;87.10;;;;;;5083705;28;20054;-66
2021/11/21 02:52:32;;;;;;;3.97;2.65;;;17.10;87.10;;;;;;5069191;28;20044;-66
2021/11/21 02:54:59;;;;;;;5.63;3.72;;;17.10;87.10;;;;;;5069147;28;20052;-66
2021/11/21 02:57:26;;;;;;;5.32;2.95;;;17.10;87.00;;;;;;5067623;28;20076;-66
2021/11/21 02:59:52;;;;;;;6.00;2.55;;;17.10;86.90;;;;;;5068633;28;20445;-66
2021/11/21 03:02:19;;;;;;;5.28;2.85;;;17.10;86.70;;;;;;5069537;28;20024;-66
2021/11/21 03:04:47;;;;;;;6.75;2.83;;;17.10;86.60;;;;;;5069024;28;20064;-66
2021/11/21 03:07:12;;;;;;;6.05;2.80;;;17.10;86.60;;;;;;5068724;28;20041;-65
2021/11/21 03:09:39;;;;;;;4.13;2.30;;;17.10;86.40;;;;;;5069200;28;20059;-66
2021/11/21 03:12:06;;;;;;;7.68;3.58;;;17.20;86.30;;;;;;5066882;28;20048;-66
2021/11/21 03:14:32;;;;;;;5.47;2.88;;;17.20;86.20;;;;;;5068088;28;20771;-66
2021/11/21 03:16:57;;;;;;;4.78;2.42;;;17.20;86.10;;;;;;5067457;28;20404;-66
2021/11/21 03:19:23;;;;;;;4.47;2.65;;;17.20;86.00;;;;;;5070895;28;20040;-66
2021/11/21 03:21:49;;;;;;;4.85;2.33;;;17.20;86.00;;;;;;5065819;28;20574;-65
2021/11/21 03:24:14;;;;;;;4.82;2.42;;;17.20;86.00;;;;;;5068683;28;20115;-66
2021/11/21 03:26:40;;;;;;;6.07;2.40;;;17.10;85.90;;;;;;5068334;28;20041;-66
2021/11/21 03:29:06;;;;;;;6.20;2.40;;;17.10;85.90;;;;;;5066962;28;20055;-66
2021/11/21 03:31:33;;;;;;;6.43;2.20;;;17.10;86.40;;;;;;5072799;28;20048;-66
2021/11/21 03:34:01;;;;;;;5.00;2.25;;;17.10;85.90;;;;;;5073158;28;21990;-66
2021/11/21 03:36:28;;;;;;;4.25;2.30;;;17.10;85.90;;;;;;5070126;28;20047;-66
2021/11/21 03:38:54;;;;;;;6.35;2.35;;;17.10;85.90;;;;;;5072335;28;20040;-66
2021/11/21 03:41:20;;;;;;;4.53;2.45;;;17.10;85.90;;;;;;5071790;28;20045;-66
2021/11/21 03:43:46;;;;;;;3.60;1.67;;;17.10;85.90;;;;;;5072965;28;20037;-66
2021/11/21 03:46:11;;;;;;;5.03;1.95;;;17.10;86.30;;;;;;5072698;28;20038;-66
2021/11/21 03:48:37;;;;;;;3.47;1.85;;;17.10;85.70;;;;;;5073279;28;20139;-66
2021/11/21 03:51:03;;;;;;;3.83;1.92;;;17.10;85.60;;;;;;5072169;28;20123;-66
2021/11/21 03:53:29;;;;;;;4.10;1.70;;;17.20;85.60;;;;;;5060336;28;20148;-66
2021/11/21 03:55:54;;;;;;;4.13;1.55;;;17.10;85.60;;;;;;5072305;28;20102;-66
2021/11/21 03:58:20;;;;;;;4.75;1.52;;;17.10;85.60;;;;;;5071097;28;20040;-66
2021/11/21 04:00:46;;;;;;;4.22;1.63;;;17.10;85.80;;;;;;5072388;28;20500;-66
2021/11/21 04:03:18;;;;;;;3.70;1.83;;;17.10;85.80;;;;;;5072731;28;20085;-65
2021/11/21 04:05:44;;;;;;;3.15;1.63;;;17.10;85.80;;;;;;5070776;28;20056;-66
2021/11/21 04:08:10;;;;;;;3.42;1.60;;;17.10;85.70;;;;;;5071981;28;20043;-65
2021/11/21 04:10:37;;;;;;;3.55;1.60;;;17.10;85.70;;;;;;5061413;28;20033;-65
2021/11/21 04:13:03;;;;;;;3.25;1.45;;;17.10;85.70;;;;;;5072164;28;20101;-66
2021/11/21 04:15:30;;;;;;;3.20;1.58;;;17.10;86.00;;;;;;5073810;28;21122;-66
2021/11/21 04:17:55;;;;;;;3.22;1.63;;;17.10;86.10;;;;;;5070114;28;20041;-66
2021/11/21 04:20:21;;;;;;;3.65;1.60;;;17.10;86.20;;;;;;5085859;28;20413;-66
2021/11/21 04:22:47;;;;;;;3.97;1.23;;;17.10;86.10;;;;;;5071343;28;20044;-66
2021/11/21 04:25:13;;;;;;;4.80;1.60;;;17.10;85.80;;;;;;5071267;28;20039;-65
2021/11/21 04:27:40;;;;;;;3.25;1.38;;;17.10;85.70;;;;;;5071912;28;20036;-65
2021/11/21 04:30:11;;;;;;;5.30;1.80;;;17.10;85.50;;;;;;5071354;28;20484;-67
2021/11/21 04:32:37;;;;;;;5.95;1.73;;;17.10;85.50;;;;;;5073496;28;20044;-66
2021/11/21 04:35:09;;;;;;;2.78;0.88;;;17.10;85.50;;;;;;5070352;28;20047;-66
2021/11/21 04:37:35;;;;;;;5.13;1.50;;;17.10;85.50;;;;;;5069394;28;20043;-66
2021/11/21 04:40:03;;;;;;;2.70;1.27;;;17.10;85.60;;;;;;5060831;28;20032;-66
2021/11/21 04:42:28;;;;;;;3.20;1.08;;;17.10;85.50;;;;;;5060103;28;20036;-66
2021/11/21 04:44:55;;;;;;;4.22;1.40;;;17.10;85.40;;;;;;5071008;28;20441;-66
2021/11/21 04:47:20;;;;;;;4.75;2.03;;;17.10;85.70;;;;;;5071164;28;20044;-66
2021/11/21 04:49:46;;;;;;;5.28;1.52;;;17.10;85.20;;;;;;5084618;28;20189;-66
2021/11/21 04:52:12;;;;;;;4.80;1.70;;;17.10;85.20;;;;;;5068357;28;20036;-66
2021/11/21 04:54:38;;;;;;;3.47;1.23;;;17.00;85.10;;;;;;5071062;28;20118;-66
2021/11/21 04:57:05;;;;;;;3.40;1.60;;;17.00;85.10;;;;;;5070395;28;20032;-66
2021/11/21 04:59:30;;;;;;;5.25;1.50;;;17.00;85.10;;;;;;5069057;28;20036;-66
2021/11/21 05:01:57;;;;;;;5.18;1.60;;;17.00;85.10;;;;;;5070626;28;20055;-66
2021/11/21 05:04:23;;;;;;;4.00;1.30;;;17.00;85.10;;;;;;5069080;28;20052;-66
2021/11/21 05:06:48;;;;;;;5.95;1.40;;;17.00;85.60;;;;;;5069917;28;20125;-66
2021/11/21 05:09:14;;;;;;;3.25;1.30;;;17.10;85.20;;;;;;5068698;28;20044;-66
2021/11/21 05:11:40;;;;;;;4.40;1.55;;;17.00;85.20;;;;;;5071144;28;20392;-66
2021/11/21 05:14:06;;;;;;;3.92;1.30;;;17.00;85.30;;;;;;5068124;28;20048;-65
2021/11/21 05:16:33;;;;;;;6.15;2.08;;;17.00;85.30;;;;;;5071157;28;20155;-66
2021/11/21 05:19:00;;;;;;;9.40;1.95;;;17.00;85.40;;;;;;5070677;28;20029;-66
2021/11/21 05:21:26;;;;;;;4.35;1.15;;;17.00;85.40;;;;;;5070540;28;20033;-67
2021/11/21 05:23:51;;;;;;;8.07;1.73;;;17.00;85.30;;;;;;5070201;28;20468;-66
2021/11/21 05:26:17;;;;;;;7.80;1.45;;;17.00;85.30;;;;;;5071638;28;20110;-65
2021/11/21 05:28:42;;;;;;;4.28;1.30;;;17.00;84.20;;;;;;5068087;28;20047;-66
2021/11/21 05:31:08;;;;;;;3.95;1.50;;;16.90;84.70;;;;;;5071083;28;20518;-67
2021/11/21 05:33:34;;;;;;;6.55;2.08;;;16.90;85.20;;;;;;5068907;28;20361;-66
2021/11/21 05:36:00;;;;;;;6.25;1.67;;;16.90;85.20;;;;;;5068218;28;20119;-68
2021/11/21 05:38:25;;;;;;;3.67;1.30;;;16.90;85.00;;;;;;5070630;28;20381;-67
2021/11/21 05:40:51;;;;;;;4.40;1.48;;;16.90;84.70;;;;;;5070429;28;20032;-67
2021/11/21 05:43:17;;;;;;;4.45;1.40;;;16.90;84.70;;;;;;5069389;28;20047;-66
2021/11/21 05:45:43;;;;;;;3.90;1.20;;;16.90;84.70;;;;;;5071619;28;20048;-67
2021/11/21 05:48:09;;;;;;;5.93;1.77;;;16.90;84.50;;;;;;5059473;28;21440;-66
2021/11/21 05:50:35;;;;;;;5.18;1.35;;;16.90;84.60;;;;;;5068771;28;20133;-67
2021/11/21 05:53:01;;;;;;;5.85;1.17;;;16.80;84.60;;;;;;5069370;28;20824;-67
2021/11/21 05:55:26;;;;;;;4.88;1.10;;;16.80;84.60;;;;;;5069570;28;20044;-67
2021/11/21 05:57:52;;;;;;;6.68;1.70;;;16.80;84.70;;;;;;5068801;28;20024;-66
2021/11/21 06:00:21;;;;;;;3.65;1.33;;;16.80;84.70;;;;;;5068629;28;20051;-66
2021/11/21 06:02:47;;;;;;;4.40;1.30;;;16.70;84.60;;;;;;5059436;28;20036;-67
2021/11/21 06:05:13;;;;;;;5.53;1.27;;;16.80;84.60;;;;;;5069572;28;20138;-66
2021/11/21 06:07:39;;;;;;;7.57;1.42;;;16.80;84.40;;;;;;5083425;28;20052;-67
2021/11/21 06:10:06;;;;;;;19.38;2.30;;;16.80;84.20;;;;;;5068752;28;20104;-61
2021/11/21 06:12:32;;;;;;;7.07;1.35;;;16.80;84.00;;;;;;5068318;28;20059;-61
2021/11/21 06:14:58;;;;;;;5.20;1.60;;;16.70;84.10;;;;;;5083978;28;20477;-62
2021/11/21 06:17:24;;;;;;;4.05;1.50;;;16.70;84.30;;;;;;5068405;28;20646;-61
2021/11/21 06:19:50;;;;;;;6.22;1.73;;;16.70;84.10;;;;;;5068815;28;20040;-61
2021/11/21 06:22:19;;;;;;;5.90;1.17;;;16.70;84.00;;;;;;5085860;28;20517;-61
2021/11/21 06:24:45;;;;;;;5.65;1.20;;;16.80;84.10;;;;;;5069541;28;20064;-61
2021/11/21 06:27:11;;;;;;;7.40;1.40;;;16.70;84.20;;;;;;5069650;28;20043;-61
2021/11/21 06:29:38;;;;;;;3.97;1.20;;;16.70;84.20;;;;;;5068033;28;20032;-61
2021/11/21 06:32:04;;;;;;;4.28;1.52;;;16.70;84.00;;;;;;5070015;28;20369;-61
2021/11/21 06:34:30;;;;;;;3.90;1.33;;;16.70;83.90;;;;;;5069423;28;20476;-61
2021/11/21 06:36:56;;;;;;;5.45;1.48;;;16.70;83.90;;;;;;5066500;28;20425;-61
2021/11/21 06:39:22;;;;;;;5.50;1.55;;;16.70;83.80;;;;;;5068663;28;20179;-61
2021/11/21 06:41:48;;;;;;;5.25;1.30;;;16.70;83.70;;;;;;5068425;28;20123;-61
2021/11/21 06:44:13;;;;;;;5.78;1.30;;;16.70;83.90;;;;;;5068097;28;20225;-61
2021/11/21 06:46:40;;;;;;;4.70;1.00;;;16.70;84.20;;;;;;5068885;28;20047;-62
2021/11/21 06:49:06;;;;;;;8.95;1.60;;;16.60;83.70;;;;;;5069637;28;20036;-61
2021/11/21 06:51:33;;;;;;;4.43;1.48;;;16.60;83.80;;;;;;5084632;28;20037;-61
2021/11/21 06:53:58;;;;;;;5.25;1.30;;;16.60;83.80;;;;;;5067327;28;20043;-61
2021/11/21 06:56:28;;;;;;;4.03;1.30;;;16.50;83.60;;;;;;5070070;28;20031;-60
2021/11/21 06:58:54;;;;;;;3.97;1.30;;;16.40;83.00;;;;;;5068016;28;20048;-59
2021/11/21 07:01:19;;;;;;;6.18;1.70;;;16.30;83.40;;;;;;5070570;28;20044;-60
2021/11/21 07:03:45;;;;;;;6.82;1.35;;;16.20;83.50;;;;;;5070913;28;20048;-59
2021/11/21 07:06:30;;;;;;;7.28;1.50;;;16.20;83.50;;;;;;5073226;28;20129;-59
2021/11/21 07:08:56;;;;;;;8.07;1.73;;;16.20;83.30;;;;;;5061068;28;20040;-60
2021/11/21 07:11:23;;;;;;;7.47;1.65;;;16.10;83.10;;;;;;5071651;28;20484;-59
2021/11/21 07:13:49;;;;;;;7.38;1.27;;;16.10;83.00;;;;;;5060520;28;20075;-60
2021/11/21 07:16:15;;;;;;;7.55;1.48;;;16.10;82.90;;;;;;5073420;28;20035;-59
2021/11/21 07:18:40;;;;;;;4.05;1.35;;;16.10;82.90;;;;;;5089637;28;20436;-60
2021/11/21 07:21:06;;;;;;;7.15;1.52;;;16.10;83.00;;;;;;5071189;28;20043;-60
2021/11/21 07:23:34;;;;;;;8.77;1.95;;;16.00;82.50;;;;;;5073013;28;20040;-60
2021/11/21 07:26:00;;;;;;;5.10;1.30;;;16.00;82.70;;;;;;5071268;28;20094;-61
2021/11/21 07:28:26;;;;;;;4.43;1.23;;;15.90;82.60;;;;;;5067923;28;20036;-60
2021/11/21 07:30:52;;;;;;;5.55;1.10;;;15.90;82.60;;;;;;5071214;28;20037;-63
2021/11/21 07:33:18;;;;;;;5.93;1.48;;;15.90;82.50;;;;;;5074570;28;20042;-63
2021/11/21 07:35:43;;;;;;;7.65;1.52;;;15.90;82.60;;;;;;5070127;28;20036;-64
2021/11/21 07:38:09;;;;;;;6.68;1.48;;;15.90;82.50;;;;;;5071089;28;20048;-63
2021/11/21 07:40:35;;;;;;;8.20;1.67;;;15.90;82.20;;;;;;5070560;28;20036;-60
2021/11/21 07:43:01;;;;;;;5.85;1.40;;;16.00;81.70;;;;;;5071038;28;20502;-60
2021/11/21 07:45:27;;;;;;;7.65;1.70;;;16.00;81.40;;;;;;5072172;28;20040;-60
2021/11/21 07:47:53;;;;;;;13.20;1.98;;;16.00;81.30;;;;;;5073877;28;20823;-62
2021/11/21 07:50:19;;;;;;;10.57;2.00;;;15.90;79.30;;;;;;5070939;28;20648;-62
2021/11/21 07:52:45;;;;;;;12.02;1.77;;;15.30;76.80;;;;;;5068915;28;20545;-62
2021/11/21 07:55:12;;;;;;;8.40;2.10;;;14.90;76.60;;;;;;5068221;28;20046;-62
2021/11/21 07:57:37;;;;;;;7.95;2.10;;;14.60;76.40;;;;;;5043481;28;20073;-63
2021/11/21 08:00:06;;;;;;;11.68;1.58;;;14.30;76.50;;;;;;5070690;28;20047;-63
2021/11/21 08:02:32;;;;;;;7.30;1.35;;;14.20;76.70;;;;;;5087653;28;20090;-62
2021/11/21 08:04:58;;;;;;;12.93;1.95;;;14.10;77.10;;;;;;5069803;28;20507;-62
2021/11/21 08:07:23;;;;;;;9.63;2.08;;;13.80;76.90;;;;;;5043122;28;20137;-62
2021/11/21 08:09:49;;;;;;;11.77;1.92;;;13.60;77.30;;;;;;5070017;28;20052;-62
2021/11/21 08:12:15;;;;;;;7.72;1.80;;;13.30;77.80;;;;;;5088184;28;20416;-62
2021/11/21 08:14:41;;;;;;;13.25;1.40;;;13.20;78.30;;;;;;5071699;28;20068;-62
2021/11/21 08:17:06;;;;;;;8.40;1.92;;;13.00;81.00;;;;;;5042564;28;20534;-62
2021/11/21 08:19:32;;;;;;;7.53;1.30;;;13.00;82.70;;;;;;5069400;28;20094;-67
2021/11/21 08:21:58;;;;;;;8.38;1.48;;;12.90;81.60;;;;;;5082813;28;20060;-66
2021/11/21 08:24:24;;;;;;;6.35;1.80;;;12.90;81.20;;;;;;5069873;28;20189;-68
2021/11/21 08:26:50;;;;;;;8.75;1.58;;;12.80;80.90;;;;;;5070445;28;20036;-68
2021/11/21 08:29:15;;;;;;;10.85;2.83;;;12.70;81.10;;;;;;5054665;28;20132;-67
2021/11/21 08:31:42;;;;;;;7.45;1.60;;;12.60;81.40;;;;;;5087049;28;20516;-67
2021/11/21 08:34:09;;;;;;;9.23;1.85;;;12.50;81.90;;;;;;5069772;28;20127;-67
2021/11/21 08:36:35;;;;;;;9.50;1.85;;;12.50;82.20;;;;;;5085827;28;20043;-67
2021/11/21 08:39:01;;;;;;;10.43;2.10;;;12.50;82.40;;;;;;5067951;28;20036;-67
2021/11/21 08:41:27;;;;;;;9.73;1.42;;;12.50;82.20;;;;;;5070419;28;20036;-70
2021/11/21 08:43:53;;;;;;;7.40;2.22;;;12.30;82.00;;;;;;5085362;28;20036;-72
2021/11/21 08:46:18;;;;;;;9.15;1.70;;;12.10;82.10;;;;;;5069128;28;20048;-69
2021/11/21 08:48:44;;;;;;;9.77;1.75;;;12.00;82.50;;;;;;5071217;28;20044;-70
2021/11/21 08:51:10;;;;;;;12.73;1.85;;;12.10;82.70;;;;;;5084796;28;20166;-70
2021/11/21 08:53:36;;;;;;;6.50;1.70;;;12.10;82.70;;;;;;5068976;28;20041;-69
2021/11/21 08:56:02;;;;;;;6.93;2.00;;;12.40;82.60;;;;;;5059947;28;20044;-70
2021/11/21 08:58:28;;;;;;;6.63;2.40;;;12.60;82.70;;;;;;5069606;28;20036;-68
2021/11/21 09:00:53;;;;;;;7.30;1.55;;;12.80;81.80;;;;;;5072653;28;20148;-70
2021/11/21 09:03:19;;;;;;;10.05;2.30;;;13.00;81.50;;;;;;5086779;28;20045;-68
2021/11/21 09:05:45;;;;;;;11.20;1.85;;;13.10;81.10;;;;;;5058855;28;20119;-69
2021/11/21 09:08:12;;;;;;;5.90;1.80;;;13.20;80.80;;;;;;5058827;28;20879;-68
2021/11/21 09:10:38;;;;;;;9.73;2.15;;;13.30;80.50;;;;;;5071352;28;20094;-69
2021/11/21 09:13:04;;;;;;;10.23;2.33;;;13.30;80.60;;;;;;5071778;28;22155;-70
2021/11/21 09:15:30;;;;;;;10.45;2.38;;;13.40;80.50;;;;;;5070154;28;20052;-71
2021/11/21 09:17:56;;;;;;;12.65;1.83;;;13.60;80.60;;;;;;5070572;28;20506;-72
2021/11/21 09:20:23;;;;;;;12.70;2.92;;;13.70;80.00;;;;;;5071553;28;20131;-70
2021/11/21 09:22:50;;;;;;;9.50;2.45;;;13.50;79.80;;;;;;5058710;28;20119;-71
2021/11/21 09:25:16;;;;;;;12.82;2.63;;;13.40;80.10;;;;;;5041331;28;20527;-69
2021/11/21 09:27:42;;;;;;;9.57;2.08;;;13.30;80.30;;;;;;5069296;28;20126;-68
2021/11/21 09:30:09;;;;;;;6.45;2.90;;;13.30;80.70;;;;;;5070801;28;20573;-66
2021/11/21 09:32:36;;;;;;;8.88;2.25;;;13.50;81.10;;;;;;5071772;28;20039;-70
2021/11/21 09:35:04;;;;;;;6.90;1.60;;;13.50;81.00;;;;;;5072176;28;20960;-67
2021/11/21 09:37:30;;;;;;;14.63;2.00;;;13.50;80.80;;;;;;5070874;28;20028;-66
2021/11/21 09:39:56;;;;;;;10.15;2.00;;;13.50;80.60;;;;;;5070408;28;20465;-67
2021/11/21 09:42:21;;;;;;;7.78;2.05;;;13.50;81.10;;;;;;5086883;28;20037;-66
2021/11/21 09:44:47;;;;;;;5.85;1.50;;;13.50;81.30;;;;;;5071307;28;20052;-68
2021/11/21 09:47:13;;;;;;;9.07;1.85;;;13.70;81.20;;;;;;5072111;28;20044;-68
2021/11/21 09:49:44;;;;;;;8.50;1.40;;;13.80;80.70;;;;;;5112190;27;1270036;-71
2021/11/21 09:52:15;;;;;;;6.95;1.67;;;14.00;80.50;;;;;;5136077;27;20482;-71
2021/11/21 09:54:41;;;;;;;9.05;1.48;;;14.20;80.20;;;;;;5135245;27;20408;-68
2021/11/21 09:57:06;;;;;;;12.60;1.60;;;14.40;80.00;;;;;;5135109;27;20041;-68
2021/11/21 09:59:51;;;;;;;7.28;1.90;;;14.60;80.00;;;;;;5133737;27;20043;-68
2021/11/21 10:02:22;;;;;;;11.00;2.10;;;14.70;79.40;;;;;;5133554;27;20148;-69
2021/11/21 10:04:48;;;;;;;7.57;1.88;;;14.80;78.70;;;;;;5128983;27;20074;-68
2021/11/21 10:07:22;;;;;;;11.02;1.77;;;14.70;78.40;;;;;;5136250;27;20386;-68
2021/11/21 10:09:49;;;;;;;9.27;1.83;;;14.80;78.60;;;;;;5098614;27;20526;-68
2021/11/21 10:12:15;;;;;;;10.15;1.60;;;14.80;78.40;;;;;;5134187;27;20084;-68
2021/11/21 10:15:03;;;;;;;9.23;1.80;;;15.00;78.40;;;;;;5121509;27;20614;-68
2021/11/21 10:17:30;;;;;;;10.18;1.80;;;15.10;78.10;;;;;;5133749;27;20676;-68
2021/11/21 10:20:11;;;;;;;13.90;1.67;;;15.20;77.70;;;;;;5135241;27;20130;-70
2021/11/21 10:23:05;;;;;;;6.43;1.27;;;15.30;77.20;;;;;;5134258;27;20375;-68
2021/11/21 10:25:33;;;;;;;;;;;15.30;77.60;;;;;;5131076;27;20103;-67
2021/11/21 10:28:14;;;;;;;9.68;2.08;;;15.20;78.50;;;;;;5114404;27;19927;-67
2021/11/21 10:30:59;;;;;;;7.47;1.52;;;15.20;78.30;;;;;;5132114;27;20444;-68
2021/11/21 10:33:27;;;;;;;6.95;1.70;;;15.30;78.30;;;;;;5134290;27;20174;-67
2021/11/21 10:36:06;;;;;;;5.95;1.40;;;15.30;78.20;;;;;;5134710;27;20042;-67
2021/11/21 10:38:53;;;;;;;9.27;2.22;;;15.40;78.20;;;;;;5133580;27;20043;-68
2021/11/21 10:41:26;;;;;;;9.27;1.80;;;15.40;78.10;;;;;;5132615;27;20050;-68
2021/11/21 10:44:03;;;;;;;8.73;2.15;;;15.50;78.00;;;;;;5111265;27;20919;-69
2021/11/21 10:46:59;;;;;;;9.80;1.63;;;15.50;77.70;;;;;;5115731;27;20039;-68
2021/11/21 10:49:31;;;;;;;11.18;1.27;;;15.40;77.40;;;;;;5110668;27;20147;-68
2021/11/21 10:51:57;;;;;;;12.73;3.17;;;15.20;77.50;;;;;;5113611;27;20035;-68
2021/11/21 10:54:24;;;;;;;20.17;3.45;;;15.10;83.30;;;;;;5111391;27;20301;-68
2021/11/21 10:56:55;;;;;;;13.27;3.00;;;15.20;89.70;;;;;;5112544;27;22432;-68
2021/11/21 10:59:41;;;;;;;6.28;2.13;;;15.40;90.20;;;;;;5108427;27;20040;-67
2021/11/21 11:02:18;;;;;;;15.27;2.30;;;15.60;88.80;;;;;;5081198;28;20039;-67
2021/11/21 11:05:02;;;;;;;10.75;2.33;;;15.70;88.50;;;;;;5098128;28;20085;-67
2021/11/21 11:07:31;;;;;;;8.18;2.30;;;15.60;84.20;;;;;;5098751;28;20065;-68
2021/11/21 11:09:57;;;;;;;7.88;2.33;;;15.60;87.20;;;;;;5099345;28;20122;-68
2021/11/21 11:12:24;;;;;;;7.45;1.77;;;15.60;87.70;;;;;;5096802;28;20118;-67
2021/11/21 11:14:53;;;;;;;9.07;2.25;;;15.70;86.80;;;;;;5097883;28;20039;-66
2021/11/21 11:17:19;;;;;;;7.43;2.28;;;15.70;86.40;;;;;;5097436;28;20036;-66
2021/11/21 11:19:46;;;;;;;8.90;1.75;;;15.70;85.60;;;;;;5099403;28;20048;-66
2021/11/21 11:22:12;;;;;;;5.20;1.98;;;15.70;83.20;;;;;;5085888;28;20079;-67
2021/11/21 11:24:42;;;;;;;9.27;1.90;;;15.60;84.30;;;;;;5095640;28;20488;-68
2021/11/21 11:27:16;;;;;;;8.20;2.65;;;15.60;84.00;;;;;;5099116;28;20043;-67
2021/11/21 11:29:49;;;;;;;9.07;1.67;;;15.60;82.50;;;;;;5098640;28;20514;-68
2021/11/21 11:32:34;;;;;;;;;;;15.40;81.60;;;;;;5097366;28;20457;-67
2021/11/21 11:35:00;;;;;;;10.25;1.83;;;15.40;79.70;;;;;;5096997;28;19968;-67
2021/11/21 11:37:40;;;;;;;8.60;1.98;;;15.30;83.20;;;;;;5102463;28;20121;-67
2021/11/21 11:40:30;;;;;;;7.75;2.13;;;15.30;80.80;;;;;;5098620;28;20086;-67
2021/11/21 11:42:59;;;;;;;7.82;2.15;;;15.30;82.30;;;;;;5097343;28;20040;-61
2021/11/21 11:45:41;;;;;;;7.82;2.58;;;15.20;82.40;;;;;;5097268;28;20077;-61
2021/11/21 11:48:28;;;;;;;8.50;1.60;;;15.20;79.60;;;;;;5097634;28;20056;-61
2021/11/21 11:50:54;;;;;;;3.00;0.77;;;15.00;78.90;;;;;;5099803;28;20092;-61
2021/11/21 11:53:40;;;;;;;4.28;0.80;;;14.70;78.70;;;;;;5096696;28;20032;-61
2021/11/21 11:56:24;;;;;;;7.07;1.77;;;14.60;77.10;;;;;;5097174;28;20035;-61
2021/11/21 11:58:57;;;;;;;4.70;1.30;;;14.40;76.50;;;;;;5095586;28;20039;-61
2021/11/21 12:01:32;;;;;;;6.22;1.58;;;14.20;77.90;;;;;;5097938;28;20048;-61
2021/11/21 12:03:59;;;;;;;8.68;1.33;;;14.10;79.70;;;;;;5097194;28;20131;-61
2021/11/21 12:06:47;;;;;;;6.47;1.35;;;14.00;80.20;;;;;;5095855;28;20457;-60
2021/11/21 12:09:16;;;;;;;5.43;1.20;;;14.00;80.20;;;;;;5096646;28;20044;-60
2021/11/21 12:11:59;;;;;;;5.32;0.90;;;13.90;80.60;;;;;;5097340;28;20043;-60
2021/11/21 12:14:51;;;;;;;6.80;1.33;;;14.00;80.10;;;;;;5096275;28;20047;-60
2021/11/21 12:17:23;;;;;;;4.93;0.98;;;14.00;81.30;;;;;;5095975;28;20055;-60
2021/11/21 12:20:00;;;;;;;4.78;1.10;;;14.00;81.30;;;;;;5096972;28;20040;-60
2021/11/21 12:22:29;;;;;;;4.38;1.33;;;14.10;80.90;;;;;;5097348;28;20059;-60
2021/11/21 12:24:57;;;;;;;6.00;1.17;;;14.10;81.50;;;;;;5096128;28;20466;-60
2021/11/21 12:27:29;;;;;;;5.70;1.10;;;14.10;80.30;;;;;;5097719;28;20036;-60
2021/11/21 12:30:11;;;;;;;5.22;0.93;;;14.00;79.00;;;;;;5097856;28;20582;-60
2021/11/21 12:32:56;;;;;;;5.00;1.55;;;13.90;77.60;;;;;;5095251;28;20130;-60
2021/11/21 12:35:48;;;;;;;3.10;0.82;;;13.80;75.00;;;;;;5095374;28;20120;-60
2021/11/21 12:38:19;;;;;;;6.45;1.38;;;13.70;75.60;;;;;;5106103;27;20127;-61
2021/11/21 12:40:55;;;;;;;4.78;0.75;;;13.70;76.60;;;;;;5096132;28;20147;-61
2021/11/21 12:43:24;;;;;;;4.32;1.10;;;13.70;76.70;;;;;;5097553;28;20146;-61
2021/11/21 12:46:00;;;;;;;6.45;1.33;;;13.60;75.50;;;;;;5095548;28;20032;-61
2021/11/21 12:48:29;;;;;;;7.53;1.35;;;13.60;76.10;;;;;;5101296;28;20132;-61
2021/11/21 12:50:56;;;;;;;4.95;1.23;;;13.70;78.30;;;;;;5096928;28;20182;-61
2021/11/21 12:53:27;;;;;;;8.65;1.17;;;13.80;77.00;;;;;;5095272;28;20422;-61